sensor_id;sensor_type;location;lat;lon;timestamp;P1;durP1;ratioP1;P2;durP2;ratioP2
45909;SDS011;31622;55.416;37.840;2023-07-31T00:01:21;5.93;;;3.28;;
45909;SDS011;31622;55.416;37.840;2023-07-31T00:03:47;7.07;;;3.40;;
45909;SDS011;31622;55.416;37.840;2023-07-31T00:06:13;4.22;;;2.92;;
45909;SDS011;31622;55.416;37.840;2023-07-31T00:08:38;4.55;;;2.80;;
45909;SDS011;31622;55.416;37.840;2023-07-31T00:11:04;7.50;;;3.05;;
45909;SDS011;31622;55.416;37.840;2023-07-31T00:13:30;3.78;;;2.92;;
45909;SDS011;31622;55.416;37.840;2023-07-31T00:15:55;4.32;;;3.13;;
45909;SDS011;31622;55.416;37.840;2023-07-31T00:18:21;5.32;;;3.28;;
45909;SDS011;31622;55.416;37.840;2023-07-31T00:20:47;6.07;;;3.13;;
45909;SDS011;31622;55.416;37.840;2023-07-31T00:23:13;5.63;;;3.35;;
45909;SDS011;31622;55.416;37.840;2023-07-31T00:25:39;4.22;;;2.58;;
45909;SDS011;31622;55.416;37.840;2023-07-31T00:28:05;5.07;;;2.70;;
45909;SDS011;31622;55.416;37.840;2023-07-31T00:30:31;4.68;;;2.67;;
45909;SDS011;31622;55.416;37.840;2023-07-31T00:32:57;4.47;;;3.22;;
45909;SDS011;31622;55.416;37.840;2023-07-31T00:35:23;6.78;;;3.35;;
45909;SDS011;31622;55.416;37.840;2023-07-31T00:37:48;5.82;;;2.95;;
45909;SDS011;31622;55.416;37.840;2023-07-31T00:40:14;6.05;;;2.65;;
45909;SDS011;31622;55.416;37.840;2023-07-31T00:42:40;4.88;;;2.85;;
45909;SDS011;31622;55.416;37.840;2023-07-31T00:45:07;4.35;;;3.08;;
45909;SDS011;31622;55.416;37.840;2023-07-31T00:47:33;4.03;;;2.85;;
45909;SDS011;31622;55.416;37.840;2023-07-31T00:49:58;5.78;;;2.80;;
45909;SDS011;31622;55.416;37.840;2023-07-31T00:52:24;4.78;;;2.70;;
45909;SDS011;31622;55.416;37.840;2023-07-31T00:54:50;4.55;;;2.78;;
45909;SDS011;31622;55.416;37.840;2023-07-31T00:57:16;6.85;;;3.10;;
45909;SDS011;31622;55.416;37.840;2023-07-31T00:59:41;5.05;;;2.85;;
45909;SDS011;31622;55.416;37.840;2023-07-31T01:02:07;5.30;;;2.92;;
45909;SDS011;31622;55.416;37.840;2023-07-31T01:04:33;5.10;;;2.90;;
45909;SDS011;31622;55.416;37.840;2023-07-31T01:14:38;5.93;;;2.83;;
45909;SDS011;31622;55.416;37.840;2023-07-31T01:17:04;4.63;;;3.08;;
45909;SDS011;31622;55.416;37.840;2023-07-31T01:19:30;4.50;;;2.70;;
45909;SDS011;31622;55.416;37.840;2023-07-31T01:21:59;4.07;;;2.90;;
45909;SDS011;31622;55.416;37.840;2023-07-31T01:27:24;4.15;;;2.47;;
45909;SDS011;31622;55.416;37.840;2023-07-31T01:29:56;4.68;;;2.80;;
45909;SDS011;31622;55.416;37.840;2023-07-31T01:32:26;4.80;;;2.63;;
45909;SDS011;31622;55.416;37.840;2023-07-31T01:34:53;2.75;;;2.20;;
45909;SDS011;31622;55.416;37.840;2023-07-31T01:37:19;5.78;;;2.60;;
45909;SDS011;31622;55.416;37.840;2023-07-31T01:39:45;3.47;;;2.28;;
45909;SDS011;31622;55.416;37.840;2023-07-31T01:42:10;5.40;;;2.92;;
45909;SDS011;31622;55.416;37.840;2023-07-31T01:44:36;3.90;;;2.60;;
45909;SDS011;31622;55.416;37.840;2023-07-31T01:47:04;5.07;;;3.00;;
45909;SDS011;31622;55.416;37.840;2023-07-31T01:49:30;3.75;;;2.65;;
45909;SDS011;31622;55.416;37.840;2023-07-31T01:51:55;3.72;;;2.70;;
45909;SDS011;31622;55.416;37.840;2023-07-31T01:54:21;4.55;;;2.60;;
45909;SDS011;31622;55.416;37.840;2023-07-31T01:56:47;6.88;;;2.80;;
45909;SDS011;31622;55.416;37.840;2023-07-31T01:59:12;5.63;;;2.50;;
45909;SDS011;31622;55.416;37.840;2023-07-31T02:01:38;3.90;;;2.75;;
45909;SDS011;31622;55.416;37.840;2023-07-31T02:04:04;4.80;;;3.08;;
45909;SDS011;31622;55.416;37.840;2023-07-31T02:06:30;4.10;;;2.65;;
45909;SDS011;31622;55.416;37.840;2023-07-31T02:08:56;4.78;;;2.55;;
45909;SDS011;31622;55.416;37.840;2023-07-31T02:11:21;6.70;;;3.00;;
45909;SDS011;31622;55.416;37.840;2023-07-31T02:13:48;6.20;;;2.60;;
45909;SDS011;31622;55.416;37.840;2023-07-31T02:16:14;3.85;;;2.75;;
45909;SDS011;31622;55.416;37.840;2023-07-31T02:18:40;3.20;;;2.65;;
45909;SDS011;31622;55.416;37.840;2023-07-31T02:21:06;4.90;;;3.00;;
45909;SDS011;31622;55.416;37.840;2023-07-31T02:23:31;5.82;;;3.17;;
45909;SDS011;31622;55.416;37.840;2023-07-31T02:25:57;5.40;;;2.83;;
45909;SDS011;31622;55.416;37.840;2023-07-31T02:28:23;5.80;;;3.10;;
45909;SDS011;31622;55.416;37.840;2023-07-31T02:30:49;5.57;;;2.95;;
45909;SDS011;31622;55.416;37.840;2023-07-31T02:33:16;5.13;;;3.03;;
45909;SDS011;31622;55.416;37.840;2023-07-31T02:35:42;5.90;;;3.10;;
45909;SDS011;31622;55.416;37.840;2023-07-31T02:38:07;7.20;;;3.20;;
45909;SDS011;31622;55.416;37.840;2023-07-31T02:40:33;5.50;;;2.97;;
45909;SDS011;31622;55.416;37.840;2023-07-31T02:42:59;5.00;;;3.20;;
45909;SDS011;31622;55.416;37.840;2023-07-31T02:45:25;6.70;;;3.00;;
45909;SDS011;31622;55.416;37.840;2023-07-31T02:47:51;5.95;;;2.78;;
45909;SDS011;31622;55.416;37.840;2023-07-31T02:50:17;5.20;;;3.03;;
45909;SDS011;31622;55.416;37.840;2023-07-31T02:52:43;7.85;;;3.58;;
45909;SDS011;31622;55.416;37.840;2023-07-31T02:55:08;7.40;;;3.15;;
45909;SDS011;31622;55.416;37.840;2023-07-31T02:57:34;6.38;;;2.80;;
45909;SDS011;31622;55.416;37.840;2023-07-31T03:00:00;6.22;;;3.03;;
45909;SDS011;31622;55.416;37.840;2023-07-31T03:02:26;5.18;;;3.00;;
45909;SDS011;31622;55.416;37.840;2023-07-31T03:04:51;5.30;;;2.88;;
45909;SDS011;31622;55.416;37.840;2023-07-31T03:07:17;5.10;;;3.10;;
45909;SDS011;31622;55.416;37.840;2023-07-31T03:09:43;4.32;;;2.70;;
45909;SDS011;31622;55.416;37.840;2023-07-31T03:12:09;4.25;;;2.63;;
45909;SDS011;31622;55.416;37.840;2023-07-31T03:14:35;5.03;;;3.22;;
45909;SDS011;31622;55.416;37.840;2023-07-31T03:17:01;5.35;;;3.08;;
45909;SDS011;31622;55.416;37.840;2023-07-31T03:19:26;5.78;;;3.40;;
45909;SDS011;31622;55.416;37.840;2023-07-31T03:21:52;5.13;;;2.80;;
45909;SDS011;31622;55.416;37.840;2023-07-31T03:24:18;4.35;;;2.90;;
45909;SDS011;31622;55.416;37.840;2023-07-31T03:26:43;7.25;;;2.83;;
45909;SDS011;31622;55.416;37.840;2023-07-31T03:29:10;4.72;;;3.35;;
45909;SDS011;31622;55.416;37.840;2023-07-31T03:31:35;5.10;;;3.05;;
45909;SDS011;31622;55.416;37.840;2023-07-31T03:34:01;5.80;;;3.50;;
45909;SDS011;31622;55.416;37.840;2023-07-31T03:36:27;4.93;;;2.53;;
45909;SDS011;31622;55.416;37.840;2023-07-31T03:38:52;5.05;;;3.25;;
45909;SDS011;31622;55.416;37.840;2023-07-31T03:41:18;6.25;;;2.75;;
45909;SDS011;31622;55.416;37.840;2023-07-31T03:43:45;7.10;;;2.90;;
45909;SDS011;31622;55.416;37.840;2023-07-31T03:46:13;4.60;;;3.08;;
45909;SDS011;31622;55.416;37.840;2023-07-31T03:48:39;5.90;;;3.67;;
45909;SDS011;31622;55.416;37.840;2023-07-31T03:51:04;10.40;;;3.25;;
45909;SDS011;31622;55.416;37.840;2023-07-31T03:53:30;4.18;;;2.67;;
45909;SDS011;31622;55.416;37.840;2023-07-31T03:55:56;4.25;;;3.13;;
45909;SDS011;31622;55.416;37.840;2023-07-31T03:58:22;5.97;;;3.05;;
45909;SDS011;31622;55.416;37.840;2023-07-31T04:00:47;8.50;;;3.38;;
45909;SDS011;31622;55.416;37.840;2023-07-31T04:03:13;4.95;;;3.53;;
45909;SDS011;31622;55.416;37.840;2023-07-31T04:05:39;5.88;;;2.95;;
45909;SDS011;31622;55.416;37.840;2023-07-31T04:08:05;8.77;;;3.83;;
45909;SDS011;31622;55.416;37.840;2023-07-31T04:10:31;6.35;;;3.30;;
45909;SDS011;31622;55.416;37.840;2023-07-31T04:12:59;6.28;;;2.80;;
45909;SDS011;31622;55.416;37.840;2023-07-31T04:15:25;5.18;;;2.92;;
45909;SDS011;31622;55.416;37.840;2023-07-31T04:17:51;4.53;;;3.00;;
45909;SDS011;31622;55.416;37.840;2023-07-31T04:20:17;9.15;;;3.20;;
45909;SDS011;31622;55.416;37.840;2023-07-31T04:22:43;6.40;;;3.17;;
45909;SDS011;31622;55.416;37.840;2023-07-31T04:25:08;8.40;;;3.35;;
45909;SDS011;31622;55.416;37.840;2023-07-31T04:27:34;9.13;;;4.80;;
45909;SDS011;31622;55.416;37.840;2023-07-31T04:30:00;6.93;;;3.97;;
45909;SDS011;31622;55.416;37.840;2023-07-31T04:32:25;7.03;;;3.90;;
45909;SDS011;31622;55.416;37.840;2023-07-31T04:34:51;7.18;;;3.58;;
45909;SDS011;31622;55.416;37.840;2023-07-31T04:37:17;5.65;;;3.38;;
45909;SDS011;31622;55.416;37.840;2023-07-31T04:39:43;5.85;;;3.55;;
45909;SDS011;31622;55.416;37.840;2023-07-31T04:42:08;6.00;;;3.47;;
45909;SDS011;31622;55.416;37.840;2023-07-31T04:44:35;5.22;;;2.97;;
45909;SDS011;31622;55.416;37.840;2023-07-31T04:47:00;5.70;;;3.30;;
45909;SDS011;31622;55.416;37.840;2023-07-31T04:49:27;5.10;;;2.97;;
45909;SDS011;31622;55.416;37.840;2023-07-31T04:51:53;3.70;;;2.65;;
45909;SDS011;31622;55.416;37.840;2023-07-31T04:54:19;4.63;;;3.13;;
45909;SDS011;31622;55.416;37.840;2023-07-31T04:56:44;6.15;;;3.22;;
45909;SDS011;31622;55.416;37.840;2023-07-31T04:59:10;4.70;;;3.05;;
45909;SDS011;31622;55.416;37.840;2023-07-31T05:01:36;5.38;;;3.60;;
45909;SDS011;31622;55.416;37.840;2023-07-31T05:04:01;5.18;;;2.97;;
45909;SDS011;31622;55.416;37.840;2023-07-31T05:06:27;5.13;;;2.85;;
45909;SDS011;31622;55.416;37.840;2023-07-31T05:08:53;5.70;;;2.45;;
45909;SDS011;31622;55.416;37.840;2023-07-31T05:11:18;5.03;;;2.60;;
45909;SDS011;31622;55.416;37.840;2023-07-31T05:13:44;4.72;;;2.60;;
45909;SDS011;31622;55.416;37.840;2023-07-31T05:16:10;5.25;;;2.45;;
45909;SDS011;31622;55.416;37.840;2023-07-31T05:18:35;6.00;;;2.60;;
45909;SDS011;31622;55.416;37.840;2023-07-31T05:21:01;3.67;;;1.95;;
45909;SDS011;31622;55.416;37.840;2023-07-31T05:23:27;4.82;;;2.25;;
45909;SDS011;31622;55.416;37.840;2023-07-31T05:25:52;5.13;;;2.67;;
45909;SDS011;31622;55.416;37.840;2023-07-31T05:28:18;4.68;;;2.30;;
45909;SDS011;31622;55.416;37.840;2023-07-31T05:30:44;3.47;;;2.08;;
45909;SDS011;31622;55.416;37.840;2023-07-31T05:33:10;3.13;;;2.10;;
45909;SDS011;31622;55.416;37.840;2023-07-31T05:35:36;4.05;;;2.60;;
45909;SDS011;31622;55.416;37.840;2023-07-31T05:38:01;7.18;;;2.45;;
45909;SDS011;31622;55.416;37.840;2023-07-31T05:40:27;4.70;;;2.22;;
45909;SDS011;31622;55.416;37.840;2023-07-31T05:42:53;5.38;;;2.20;;
45909;SDS011;31622;55.416;37.840;2023-07-31T05:45:18;3.53;;;2.03;;
45909;SDS011;31622;55.416;37.840;2023-07-31T05:47:44;4.97;;;2.58;;
45909;SDS011;31622;55.416;37.840;2023-07-31T05:50:10;3.95;;;2.30;;
45909;SDS011;31622;55.416;37.840;2023-07-31T05:52:35;5.07;;;2.60;;
45909;SDS011;31622;55.416;37.840;2023-07-31T05:55:01;7.47;;;2.40;;
45909;SDS011;31622;55.416;37.840;2023-07-31T05:57:28;12.90;;;3.88;;
45909;SDS011;31622;55.416;37.840;2023-07-31T05:59:53;6.82;;;3.17;;
45909;SDS011;31622;55.416;37.840;2023-07-31T06:02:19;8.10;;;2.55;;
45909;SDS011;31622;55.416;37.840;2023-07-31T06:04:45;5.35;;;2.38;;
45909;SDS011;31622;55.416;37.840;2023-07-31T06:07:10;3.85;;;2.42;;
45909;SDS011;31622;55.416;37.840;2023-07-31T06:09:36;7.05;;;3.10;;
45909;SDS011;31622;55.416;37.840;2023-07-31T06:12:02;3.88;;;2.22;;
45909;SDS011;31622;55.416;37.840;2023-07-31T06:14:28;4.00;;;2.20;;
45909;SDS011;31622;55.416;37.840;2023-07-31T06:16:54;6.47;;;2.53;;
45909;SDS011;31622;55.416;37.840;2023-07-31T06:19:19;2.67;;;1.58;;
45909;SDS011;31622;55.416;37.840;2023-07-31T06:21:45;2.60;;;1.67;;
45909;SDS011;31622;55.416;37.840;2023-07-31T06:24:11;5.38;;;2.20;;
45909;SDS011;31622;55.416;37.840;2023-07-31T06:26:38;3.03;;;1.77;;
45909;SDS011;31622;55.416;37.840;2023-07-31T06:29:04;2.67;;;1.67;;
45909;SDS011;31622;55.416;37.840;2023-07-31T06:31:29;3.60;;;1.63;;
45909;SDS011;31622;55.416;37.840;2023-07-31T06:33:55;4.57;;;2.00;;
45909;SDS011;31622;55.416;37.840;2023-07-31T06:36:21;4.10;;;2.70;;
45909;SDS011;31622;55.416;37.840;2023-07-31T06:38:47;3.22;;;2.17;;
45909;SDS011;31622;55.416;37.840;2023-07-31T06:41:13;4.32;;;1.67;;
45909;SDS011;31622;55.416;37.840;2023-07-31T06:43:39;4.00;;;1.77;;
45909;SDS011;31622;55.416;37.840;2023-07-31T06:46:05;3.80;;;2.10;;
45909;SDS011;31622;55.416;37.840;2023-07-31T06:48:32;5.85;;;1.80;;
45909;SDS011;31622;55.416;37.840;2023-07-31T06:50:58;3.25;;;1.88;;
45909;SDS011;31622;55.416;37.840;2023-07-31T06:53:24;3.40;;;1.60;;
45909;SDS011;31622;55.416;37.840;2023-07-31T06:55:49;5.75;;;1.25;;
45909;SDS011;31622;55.416;37.840;2023-07-31T06:58:17;2.35;;;1.60;;
45909;SDS011;31622;55.416;37.840;2023-07-31T07:00:43;14.38;;;2.65;;
45909;SDS011;31622;55.416;37.840;2023-07-31T07:03:09;8.52;;;2.15;;
45909;SDS011;31622;55.416;37.840;2023-07-31T07:05:34;7.57;;;1.90;;
45909;SDS011;31622;55.416;37.840;2023-07-31T07:08:00;2.47;;;1.60;;
45909;SDS011;31622;55.416;37.840;2023-07-31T07:10:26;4.28;;;1.60;;
45909;SDS011;31622;55.416;37.840;2023-07-31T07:12:52;2.65;;;1.60;;
45909;SDS011;31622;55.416;37.840;2023-07-31T07:15:18;4.47;;;1.45;;
45909;SDS011;31622;55.416;37.840;2023-07-31T07:17:44;5.40;;;1.70;;
45909;SDS011;31622;55.416;37.840;2023-07-31T07:20:12;3.83;;;1.17;;
45909;SDS011;31622;55.416;37.840;2023-07-31T07:22:38;3.45;;;1.30;;
45909;SDS011;31622;55.416;37.840;2023-07-31T07:25:04;6.05;;;1.80;;
45909;SDS011;31622;55.416;37.840;2023-07-31T07:27:30;2.40;;;1.50;;
45909;SDS011;31622;55.416;37.840;2023-07-31T07:29:56;1.75;;;1.20;;
45909;SDS011;31622;55.416;37.840;2023-07-31T07:32:22;2.05;;;1.40;;
45909;SDS011;31622;55.416;37.840;2023-07-31T07:34:48;3.72;;;1.27;;
45909;SDS011;31622;55.416;37.840;2023-07-31T07:37:14;2.00;;;1.30;;
45909;SDS011;31622;55.416;37.840;2023-07-31T07:39:39;2.30;;;1.40;;
45909;SDS011;31622;55.416;37.840;2023-07-31T07:42:06;4.03;;;1.60;;
45909;SDS011;31622;55.416;37.840;2023-07-31T07:44:32;3.38;;;1.35;;
45909;SDS011;31622;55.416;37.840;2023-07-31T07:46:57;4.40;;;1.50;;
45909;SDS011;31622;55.416;37.840;2023-07-31T07:49:23;3.15;;;1.30;;
45909;SDS011;31622;55.416;37.840;2023-07-31T07:51:49;3.83;;;2.00;;
45909;SDS011;31622;55.416;37.840;2023-07-31T07:54:15;6.28;;;1.52;;
45909;SDS011;31622;55.416;37.840;2023-07-31T07:56:42;3.45;;;1.20;;
45909;SDS011;31622;55.416;37.840;2023-07-31T07:59:08;6.10;;;1.85;;
45909;SDS011;31622;55.416;37.840;2023-07-31T08:01:34;2.78;;;1.67;;
45909;SDS011;31622;55.416;37.840;2023-07-31T08:03:59;2.72;;;1.50;;
45909;SDS011;31622;55.416;37.840;2023-07-31T08:06:25;2.97;;;1.70;;
45909;SDS011;31622;55.416;37.840;2023-07-31T08:08:51;2.78;;;1.33;;
45909;SDS011;31622;55.416;37.840;2023-07-31T08:11:16;2.75;;;1.35;;
45909;SDS011;31622;55.416;37.840;2023-07-31T08:13:42;3.15;;;1.52;;
45909;SDS011;31622;55.416;37.840;2023-07-31T08:16:08;23.33;;;3.75;;
45909;SDS011;31622;55.416;37.840;2023-07-31T08:18:35;8.65;;;1.65;;
45909;SDS011;31622;55.416;37.840;2023-07-31T08:21:03;7.10;;;1.73;;
45909;SDS011;31622;55.416;37.840;2023-07-31T08:23:30;4.72;;;1.50;;
45909;SDS011;31622;55.416;37.840;2023-07-31T08:25:55;4.03;;;1.38;;
45909;SDS011;31622;55.416;37.840;2023-07-31T08:28:21;2.95;;;1.42;;
45909;SDS011;31622;55.416;37.840;2023-07-31T08:30:47;4.93;;;1.90;;
45909;SDS011;31622;55.416;37.840;2023-07-31T08:33:13;2.33;;;1.65;;
45909;SDS011;31622;55.416;37.840;2023-07-31T08:35:38;4.70;;;1.70;;
45909;SDS011;31622;55.416;37.840;2023-07-31T08:38:04;2.30;;;1.70;;
45909;SDS011;31622;55.416;37.840;2023-07-31T08:40:30;2.58;;;1.52;;
45909;SDS011;31622;55.416;37.840;2023-07-31T08:42:55;3.72;;;1.80;;
45909;SDS011;31622;55.416;37.840;2023-07-31T08:45:22;4.70;;;1.60;;
45909;SDS011;31622;55.416;37.840;2023-07-31T08:47:49;4.25;;;1.60;;
45909;SDS011;31622;55.416;37.840;2023-07-31T08:50:16;2.75;;;1.40;;
45909;SDS011;31622;55.416;37.840;2023-07-31T08:52:43;1.90;;;1.35;;
45909;SDS011;31622;55.416;37.840;2023-07-31T08:55:09;2.45;;;1.27;;
45909;SDS011;31622;55.416;37.840;2023-07-31T08:57:36;2.13;;;1.17;;
45909;SDS011;31622;55.416;37.840;2023-07-31T09:00:03;4.10;;;1.33;;
45909;SDS011;31622;55.416;37.840;2023-07-31T09:02:54;2.40;;;1.30;;
45909;SDS011;31622;55.416;37.840;2023-07-31T09:05:16;1.58;;;1.10;;
45909;SDS011;31622;55.416;37.840;2023-07-31T09:07:43;2.20;;;1.30;;
45909;SDS011;31622;55.416;37.840;2023-07-31T09:10:13;2.45;;;1.50;;
45909;SDS011;31622;55.416;37.840;2023-07-31T09:12:39;2.33;;;1.25;;
45909;SDS011;31622;55.416;37.840;2023-07-31T09:15:05;3.75;;;1.30;;
45909;SDS011;31622;55.416;37.840;2023-07-31T09:17:32;3.60;;;1.45;;
45909;SDS011;31622;55.416;37.840;2023-07-31T09:20:32;3.92;;;1.35;;
45909;SDS011;31622;55.416;37.840;2023-07-31T09:22:50;3.13;;;1.40;;
45909;SDS011;31622;55.416;37.840;2023-07-31T09:25:23;2.50;;;1.50;;
45909;SDS011;31622;55.416;37.840;2023-07-31T09:27:51;2.88;;;1.33;;
45909;SDS011;31622;55.416;37.840;2023-07-31T09:30:17;2.50;;;1.13;;
45909;SDS011;31622;55.416;37.840;2023-07-31T09:32:44;2.47;;;1.23;;
45909;SDS011;31622;55.416;37.840;2023-07-31T09:35:16;5.00;;;1.30;;
45909;SDS011;31622;55.416;37.840;2023-07-31T09:37:52;1.48;;;1.23;;
45909;SDS011;31622;55.416;37.840;2023-07-31T09:40:25;2.20;;;1.35;;
45909;SDS011;31622;55.416;37.840;2023-07-31T09:42:59;2.55;;;1.45;;
45909;SDS011;31622;55.416;37.840;2023-07-31T09:45:29;3.13;;;1.35;;
45909;SDS011;31622;55.416;37.840;2023-07-31T09:47:55;4.90;;;1.50;;
45909;SDS011;31622;55.416;37.840;2023-07-31T09:50:23;3.92;;;1.75;;
45909;SDS011;31622;55.416;37.840;2023-07-31T09:52:50;2.20;;;1.50;;
45909;SDS011;31622;55.416;37.840;2023-07-31T09:55:16;2.45;;;1.55;;
45909;SDS011;31622;55.416;37.840;2023-07-31T09:57:43;5.07;;;1.63;;
45909;SDS011;31622;55.416;37.840;2023-07-31T10:00:11;4.47;;;1.60;;
45909;SDS011;31622;55.416;37.840;2023-07-31T10:02:38;2.25;;;1.55;;
45909;SDS011;31622;55.416;37.840;2023-07-31T10:05:05;3.08;;;1.75;;
45909;SDS011;31622;55.416;37.840;2023-07-31T10:07:34;2.25;;;1.50;;
45909;SDS011;31622;55.416;37.840;2023-07-31T10:12:29;4.38;;;2.13;;
45909;SDS011;31622;55.416;37.840;2023-07-31T10:14:56;6.38;;;1.67;;
45909;SDS011;31622;55.416;37.840;2023-07-31T10:17:23;2.10;;;1.50;;
45909;SDS011;31622;55.416;37.840;2023-07-31T10:19:49;3.67;;;1.55;;
45909;SDS011;31622;55.416;37.840;2023-07-31T10:22:15;2.35;;;1.30;;
45909;SDS011;31622;55.416;37.840;2023-07-31T10:24:47;2.35;;;1.52;;
45909;SDS011;31622;55.416;37.840;2023-07-31T10:27:14;2.58;;;1.70;;
45909;SDS011;31622;55.416;37.840;2023-07-31T10:29:39;3.53;;;1.60;;
45909;SDS011;31622;55.416;37.840;2023-07-31T10:32:07;3.08;;;1.70;;
45909;SDS011;31622;55.416;37.840;2023-07-31T10:34:35;3.72;;;2.08;;
45909;SDS011;31622;55.416;37.840;2023-07-31T10:39:58;2.35;;;1.40;;
45909;SDS011;31622;55.416;37.840;2023-07-31T10:42:34;3.03;;;1.92;;
45909;SDS011;31622;55.416;37.840;2023-07-31T10:45:06;13.82;;;5.80;;
45909;SDS011;31622;55.416;37.840;2023-07-31T10:47:38;8.27;;;3.88;;
45909;SDS011;31622;55.416;37.840;2023-07-31T10:50:11;16.63;;;3.70;;
45909;SDS011;31622;55.416;37.840;2023-07-31T10:52:46;19.23;;;2.78;;
45909;SDS011;31622;55.416;37.840;2023-07-31T10:55:16;8.23;;;2.88;;
45909;SDS011;31622;55.416;37.840;2023-07-31T10:57:50;10.05;;;2.97;;
45909;SDS011;31622;55.416;37.840;2023-07-31T11:00:27;13.32;;;3.28;;
45909;SDS011;31622;55.416;37.840;2023-07-31T11:03:00;8.90;;;3.47;;
45909;SDS011;31622;55.416;37.840;2023-07-31T11:05:49;11.15;;;4.00;;
45909;SDS011;31622;55.416;37.840;2023-07-31T11:10:43;14.50;;;4.45;;
45909;SDS011;31622;55.416;37.840;2023-07-31T11:13:09;8.45;;;3.47;;
45909;SDS011;31622;55.416;37.840;2023-07-31T11:15:35;5.35;;;2.28;;
45909;SDS011;31622;55.416;37.840;2023-07-31T11:18:01;4.65;;;2.30;;
45909;SDS011;31622;55.416;37.840;2023-07-31T11:20:31;7.40;;;2.22;;
45909;SDS011;31622;55.416;37.840;2023-07-31T11:23:02;6.97;;;3.03;;
45909;SDS011;31622;55.416;37.840;2023-07-31T11:25:31;5.47;;;2.55;;
45909;SDS011;31622;55.416;37.840;2023-07-31T11:28:05;4.95;;;2.17;;
45909;SDS011;31622;55.416;37.840;2023-07-31T11:30:31;7.75;;;3.22;;
45909;SDS011;31622;55.416;37.840;2023-07-31T11:32:57;5.18;;;2.03;;
45909;SDS011;31622;55.416;37.840;2023-07-31T11:35:23;3.58;;;1.75;;
45909;SDS011;31622;55.416;37.840;2023-07-31T11:37:49;3.65;;;1.52;;
45909;SDS011;31622;55.416;37.840;2023-07-31T11:40:14;2.75;;;1.63;;
45909;SDS011;31622;55.416;37.840;2023-07-31T11:42:41;6.18;;;1.92;;
45909;SDS011;31622;55.416;37.840;2023-07-31T11:45:07;4.28;;;1.77;;
45909;SDS011;31622;55.416;37.840;2023-07-31T11:47:35;3.85;;;1.70;;
45909;SDS011;31622;55.416;37.840;2023-07-31T11:50:09;7.38;;;1.60;;
45909;SDS011;31622;55.416;37.840;2023-07-31T11:52:37;7.18;;;1.83;;
45909;SDS011;31622;55.416;37.840;2023-07-31T11:55:06;6.07;;;2.05;;
45909;SDS011;31622;55.416;37.840;2023-07-31T11:57:34;5.78;;;2.08;;
45909;SDS011;31622;55.416;37.840;2023-07-31T12:00:02;2.53;;;1.90;;
45909;SDS011;31622;55.416;37.840;2023-07-31T12:02:29;4.25;;;1.90;;
45909;SDS011;31622;55.416;37.840;2023-07-31T12:04:55;4.97;;;2.10;;
45909;SDS011;31622;55.416;37.840;2023-07-31T12:07:21;3.20;;;1.70;;
45909;SDS011;31622;55.416;37.840;2023-07-31T12:10:05;4.57;;;1.70;;
45909;SDS011;31622;55.416;37.840;2023-07-31T12:12:31;2.67;;;1.70;;
45909;SDS011;31622;55.416;37.840;2023-07-31T12:14:57;3.30;;;1.40;;
45909;SDS011;31622;55.416;37.840;2023-07-31T12:17:23;2.88;;;1.73;;
45909;SDS011;31622;55.416;37.840;2023-07-31T12:19:48;3.50;;;1.60;;
45909;SDS011;31622;55.416;37.840;2023-07-31T12:22:15;4.40;;;1.70;;
45909;SDS011;31622;55.416;37.840;2023-07-31T12:24:44;3.35;;;1.77;;
45909;SDS011;31622;55.416;37.840;2023-07-31T12:27:16;4.38;;;1.65;;
45909;SDS011;31622;55.416;37.840;2023-07-31T12:29:43;5.22;;;1.85;;
45909;SDS011;31622;55.416;37.840;2023-07-31T12:32:24;4.20;;;1.73;;
45909;SDS011;31622;55.416;37.840;2023-07-31T12:34:50;2.63;;;1.55;;
45909;SDS011;31622;55.416;37.840;2023-07-31T12:37:17;2.83;;;2.03;;
45909;SDS011;31622;55.416;37.840;2023-07-31T12:39:42;3.05;;;1.88;;
45909;SDS011;31622;55.416;37.840;2023-07-31T12:42:08;2.58;;;1.95;;
45909;SDS011;31622;55.416;37.840;2023-07-31T12:44:34;2.45;;;1.70;;
45909;SDS011;31622;55.416;37.840;2023-07-31T12:47:00;4.07;;;1.85;;
45909;SDS011;31622;55.416;37.840;2023-07-31T12:49:25;2.85;;;1.90;;
45909;SDS011;31622;55.416;37.840;2023-07-31T12:51:51;2.35;;;1.70;;
45909;SDS011;31622;55.416;37.840;2023-07-31T12:54:17;2.47;;;1.80;;
45909;SDS011;31622;55.416;37.840;2023-07-31T12:56:42;3.42;;;1.90;;
45909;SDS011;31622;55.416;37.840;2023-07-31T12:59:08;2.50;;;1.88;;
45909;SDS011;31622;55.416;37.840;2023-07-31T13:01:34;3.13;;;1.80;;
45909;SDS011;31622;55.416;37.840;2023-07-31T13:04:00;3.85;;;1.80;;
45909;SDS011;31622;55.416;37.840;2023-07-31T13:06:25;4.13;;;2.00;;
45909;SDS011;31622;55.416;37.840;2023-07-31T13:08:51;2.60;;;1.90;;
45909;SDS011;31622;55.416;37.840;2023-07-31T13:11:17;3.60;;;1.67;;
45909;SDS011;31622;55.416;37.840;2023-07-31T13:13:42;3.05;;;1.85;;
45909;SDS011;31622;55.416;37.840;2023-07-31T13:16:08;4.40;;;2.00;;
45909;SDS011;31622;55.416;37.840;2023-07-31T13:18:35;3.20;;;1.70;;
45909;SDS011;31622;55.416;37.840;2023-07-31T13:21:01;3.63;;;1.98;;
45909;SDS011;31622;55.416;37.840;2023-07-31T13:23:26;3.15;;;2.00;;
45909;SDS011;31622;55.416;37.840;2023-07-31T13:25:52;3.53;;;1.50;;
45909;SDS011;31622;55.416;37.840;2023-07-31T13:28:18;3.40;;;1.70;;
45909;SDS011;31622;55.416;37.840;2023-07-31T13:30:44;3.40;;;1.75;;
45909;SDS011;31622;55.416;37.840;2023-07-31T13:33:11;4.78;;;2.35;;
45909;SDS011;31622;55.416;37.840;2023-07-31T13:35:37;4.70;;;3.00;;
45909;SDS011;31622;55.416;37.840;2023-07-31T13:38:02;4.68;;;2.40;;
45909;SDS011;31622;55.416;37.840;2023-07-31T13:40:28;3.72;;;2.67;;
45909;SDS011;31622;55.416;37.840;2023-07-31T13:42:54;4.07;;;2.63;;
45909;SDS011;31622;55.416;37.840;2023-07-31T13:45:20;5.05;;;2.63;;
45909;SDS011;31622;55.416;37.840;2023-07-31T13:47:46;4.25;;;2.40;;
45909;SDS011;31622;55.416;37.840;2023-07-31T13:50:12;4.72;;;2.40;;
45909;SDS011;31622;55.416;37.840;2023-07-31T13:52:38;3.70;;;2.30;;
45909;SDS011;31622;55.416;37.840;2023-07-31T13:55:03;6.30;;;2.42;;
45909;SDS011;31622;55.416;37.840;2023-07-31T13:57:29;3.00;;;2.25;;
45909;SDS011;31622;55.416;37.840;2023-07-31T13:59:55;5.93;;;2.10;;
45909;SDS011;31622;55.416;37.840;2023-07-31T14:02:21;2.33;;;1.55;;
45909;SDS011;31622;55.416;37.840;2023-07-31T14:04:46;3.67;;;2.20;;
45909;SDS011;31622;55.416;37.840;2023-07-31T14:07:12;3.50;;;1.98;;
45909;SDS011;31622;55.416;37.840;2023-07-31T14:09:38;3.70;;;2.10;;
45909;SDS011;31622;55.416;37.840;2023-07-31T14:12:04;4.10;;;2.03;;
45909;SDS011;31622;55.416;37.840;2023-07-31T14:14:30;4.50;;;2.40;;
45909;SDS011;31622;55.416;37.840;2023-07-31T14:16:55;6.05;;;2.13;;
45909;SDS011;31622;55.416;37.840;2023-07-31T14:19:21;4.15;;;2.30;;
45909;SDS011;31622;55.416;37.840;2023-07-31T14:21:47;3.40;;;2.38;;
45909;SDS011;31622;55.416;37.840;2023-07-31T14:24:12;4.05;;;2.00;;
45909;SDS011;31622;55.416;37.840;2023-07-31T14:26:38;3.28;;;1.92;;
45909;SDS011;31622;55.416;37.840;2023-07-31T14:29:04;3.97;;;2.30;;
45909;SDS011;31622;55.416;37.840;2023-07-31T14:31:30;4.20;;;2.17;;
45909;SDS011;31622;55.416;37.840;2023-07-31T14:33:55;3.65;;;2.00;;
45909;SDS011;31622;55.416;37.840;2023-07-31T14:36:21;3.92;;;2.53;;
45909;SDS011;31622;55.416;37.840;2023-07-31T14:38:47;3.63;;;2.10;;
45909;SDS011;31622;55.416;37.840;2023-07-31T14:41:12;5.03;;;2.20;;
45909;SDS011;31622;55.416;37.840;2023-07-31T14:43:38;5.03;;;2.28;;
45909;SDS011;31622;55.416;37.840;2023-07-31T14:46:04;4.25;;;2.10;;
45909;SDS011;31622;55.416;37.840;2023-07-31T14:48:30;4.07;;;2.28;;